createdAt,value
2019-03-23T00:00:18.539Z,7.40
2019-03-23T00:02:49.817Z,7.40
2019-03-23T00:05:20.869Z,7.30
2019-03-23T00:07:51.947Z,7.30
2019-03-23T00:10:23.007Z,7.30
2019-03-23T00:12:54.000Z,7.20
2019-03-23T00:15:25.029Z,7.20
2019-03-23T00:17:56.076Z,7.10
2019-03-23T00:20:27.089Z,7.00
2019-03-23T00:22:58.175Z,7.00
2019-03-23T00:25:29.155Z,7.00
2019-03-23T00:28:00.482Z,7.00
2019-03-23T00:30:31.617Z,7.00
2019-03-23T00:33:02.964Z,7.00
2019-03-23T00:35:34.333Z,6.90
2019-03-23T00:38:05.348Z,6.90
2019-03-23T00:40:36.339Z,6.80
2019-03-23T00:43:07.403Z,6.80
2019-03-23T00:45:38.454Z,6.70
2019-03-23T00:48:09.732Z,6.70
2019-03-23T00:50:40.749Z,6.70
2019-03-23T00:53:11.855Z,6.70
2019-03-23T00:55:42.896Z,6.70
2019-03-23T00:58:14.306Z,6.70
2019-03-23T01:00:45.308Z,6.60
2019-03-23T01:03:16.417Z,6.60
2019-03-23T01:05:47.550Z,6.60
2019-03-23T01:08:18.604Z,6.60
2019-03-23T01:10:49.579Z,6.60
2019-03-23T01:13:21.690Z,6.50
2019-03-23T01:15:52.672Z,6.40
2019-03-23T01:18:23.917Z,6.30
2019-03-23T01:20:54.934Z,6.30
2019-03-23T01:23:26.304Z,6.30
2019-03-23T01:25:57.315Z,6.30
2019-03-23T01:28:29.514Z,6.30
2019-03-23T01:31:00.505Z,6.30
2019-03-23T01:33:32.024Z,6.30
2019-03-23T01:36:03.031Z,6.30
2019-03-23T01:38:34.213Z,6.20
2019-03-23T01:41:05.262Z,6.20
2019-03-23T01:43:42.321Z,6.20
2019-03-23T01:46:28.919Z,6.20
2019-03-23T01:49:04.207Z,6.20
2019-03-23T01:51:46.420Z,6.10
2019-03-23T01:54:17.886Z,6.00
2019-03-23T01:56:49.084Z,6.00
2019-03-23T01:59:20.132Z,6.00
2019-03-23T02:01:51.165Z,5.90
2019-03-23T02:04:22.333Z,5.90
2019-03-23T02:06:53.394Z,5.90
2019-03-23T02:09:24.640Z,5.90
2019-03-23T02:11:55.716Z,5.90
2019-03-23T02:14:26.891Z,5.80
2019-03-23T02:16:57.893Z,5.80
2019-03-23T02:19:28.997Z,5.80
2019-03-23T02:22:00.089Z,5.80
2019-03-23T02:24:31.148Z,5.80
2019-03-23T02:27:02.176Z,5.80
2019-03-23T02:29:33.426Z,5.70
2019-03-23T02:32:04.531Z,5.60
2019-03-23T02:34:35.609Z,5.60
2019-03-23T02:37:06.607Z,5.60
2019-03-23T02:39:38.199Z,5.50
2019-03-23T02:42:09.277Z,5.40
2019-03-23T02:44:40.706Z,5.50
2019-03-23T02:47:12.243Z,5.50
2019-03-23T02:49:43.322Z,5.50
2019-03-23T02:52:14.357Z,5.50
2019-03-23T02:54:45.572Z,5.50
2019-03-23T02:57:16.595Z,5.40
2019-03-23T02:59:47.646Z,5.30
2019-03-23T03:02:18.725Z,5.20
2019-03-23T03:04:50.348Z,5.20
2019-03-23T03:07:21.392Z,5.10
2019-03-23T03:09:52.462Z,5.20
2019-03-23T03:12:23.696Z,5.20
2019-03-23T03:14:55.367Z,5.20
2019-03-23T03:17:26.539Z,5.30
2019-03-23T03:19:57.624Z,5.30
2019-03-23T03:22:28.789Z,5.20
2019-03-23T03:24:59.935Z,5.20
2019-03-23T03:27:31.437Z,5.20
2019-03-23T03:30:02.618Z,5.20
2019-03-23T03:32:34.933Z,5.20
2019-03-23T03:35:06.471Z,5.20
2019-03-23T03:37:37.716Z,5.10
2019-03-23T03:40:09.263Z,5.00
2019-03-23T03:42:40.634Z,5.10
2019-03-23T03:45:15.291Z,5.00
2019-03-23T03:47:46.669Z,5.00
2019-03-23T03:50:17.701Z,5.00
2019-03-23T03:52:48.779Z,5.00
2019-03-23T03:55:20.844Z,5.00
2019-03-23T03:57:51.959Z,4.90
2019-03-23T04:00:23.013Z,4.90
2019-03-23T04:02:54.099Z,4.90
2019-03-23T04:05:25.313Z,4.90
2019-03-23T04:08:09.894Z,4.90
2019-03-23T04:10:29.196Z,4.90
2019-03-23T04:13:00.320Z,4.80
2019-03-23T04:15:31.361Z,4.80
2019-03-23T04:18:02.358Z,4.70
2019-03-23T04:20:33.495Z,4.70
2019-03-23T04:23:04.822Z,4.70
2019-03-23T04:25:35.864Z,4.60
2019-03-23T04:28:06.924Z,4.60
2019-03-23T04:30:37.952Z,4.60
2019-03-23T04:33:09.125Z,4.60
2019-03-23T04:35:40.148Z,4.60
2019-03-23T04:38:22.161Z,4.50
2019-03-23T04:40:44.557Z,4.50
2019-03-23T04:43:15.532Z,4.50
2019-03-23T04:45:46.608Z,4.50
2019-03-23T04:48:17.877Z,4.50
2019-03-23T04:50:48.913Z,4.50
2019-03-23T04:53:19.915Z,4.50
2019-03-23T04:55:50.921Z,4.50
2019-03-23T04:58:21.940Z,4.50
2019-03-23T05:00:52.999Z,4.50
2019-03-23T05:03:24.023Z,4.50
2019-03-23T05:05:55.053Z,4.50
2019-03-23T05:08:33.427Z,4.50
2019-03-23T05:10:58.778Z,4.40
2019-03-23T05:13:29.798Z,4.40
2019-03-23T05:16:00.800Z,4.40
2019-03-23T05:18:31.797Z,4.40
2019-03-23T05:21:02.860Z,4.40
2019-03-23T05:23:33.934Z,4.30
2019-03-23T05:26:04.959Z,4.30
2019-03-23T05:28:35.998Z,4.30
2019-03-23T05:31:07.220Z,4.30
2019-03-23T05:33:38.277Z,4.30
2019-03-23T05:36:09.429Z,4.30
2019-03-23T05:38:44.718Z,4.30
2019-03-23T05:41:13.182Z,4.30
2019-03-23T05:43:44.143Z,4.30
2019-03-23T05:46:15.936Z,4.30
2019-03-23T05:48:46.958Z,4.30
2019-03-23T05:51:18.067Z,4.40
2019-03-23T05:53:49.232Z,4.40
2019-03-23T05:56:20.533Z,4.40
2019-03-23T05:58:51.537Z,4.40
2019-03-23T06:01:22.593Z,4.40
2019-03-23T06:03:54.028Z,4.40
2019-03-23T06:06:25.163Z,4.50
2019-03-23T06:08:56.568Z,4.50
2019-03-23T06:11:27.676Z,4.50
2019-03-23T06:13:58.728Z,4.50
2019-03-23T06:16:29.777Z,4.60
2019-03-23T06:19:01.215Z,4.60
2019-03-23T06:21:32.818Z,4.70
2019-03-23T06:24:03.879Z,4.80
2019-03-23T06:26:36.294Z,4.80
2019-03-23T06:29:07.789Z,4.80
2019-03-23T06:31:38.829Z,4.90
2019-03-23T06:34:09.880Z,5.00
2019-03-23T06:36:40.884Z,5.00
2019-03-23T06:39:11.997Z,5.10
2019-03-23T06:41:43.004Z,5.20
2019-03-23T06:44:14.005Z,5.30
2019-03-23T06:46:52.962Z,5.40
2019-03-23T06:49:24.210Z,5.50
2019-03-23T06:51:55.301Z,5.50
2019-03-23T06:54:28.395Z,5.70
2019-03-23T06:57:01.070Z,5.80
2019-03-23T06:59:33.636Z,5.80
2019-03-23T07:02:04.677Z,5.90
2019-03-23T07:04:35.994Z,6.00
2019-03-23T07:07:07.289Z,6.10
2019-03-23T07:09:38.363Z,6.20
2019-03-23T07:12:09.487Z,6.30
2019-03-23T07:14:40.493Z,6.40
2019-03-23T07:17:11.559Z,6.50
2019-03-23T07:19:42.785Z,6.60
2019-03-23T07:22:14.130Z,6.70
2019-03-23T07:24:45.134Z,6.70
2019-03-23T07:27:16.397Z,6.90
2019-03-23T07:29:47.537Z,7.00
2019-03-23T07:32:18.829Z,7.10
2019-03-23T07:34:50.137Z,7.20
2019-03-23T07:37:21.171Z,7.30
2019-03-23T07:39:52.573Z,7.40
2019-03-23T07:42:23.619Z,7.60
2019-03-23T07:44:55.067Z,7.70
2019-03-23T07:47:26.170Z,7.80
2019-03-23T07:49:57.203Z,7.90
2019-03-23T07:52:28.664Z,7.90
2019-03-23T07:55:05.841Z,8.10
2019-03-23T07:57:36.922Z,8.10
2019-03-23T08:00:09.012Z,8.20
2019-03-23T08:02:40.375Z,8.30
2019-03-23T08:05:11.588Z,8.40
2019-03-23T08:07:42.654Z,8.50
2019-03-23T08:10:26.013Z,8.60
2019-03-23T08:12:55.737Z,8.70
2019-03-23T08:15:25.954Z,8.70
2019-03-23T08:17:55.910Z,8.80
2019-03-23T08:20:25.381Z,8.90
2019-03-23T08:22:55.230Z,9.00
2019-03-23T08:25:24.893Z,9.10
2019-03-23T08:27:54.592Z,9.20
2019-03-23T08:30:24.277Z,9.30
2019-03-23T08:32:53.978Z,9.40
2019-03-23T08:35:23.574Z,9.50
2019-03-23T08:37:53.111Z,9.60
2019-03-23T08:40:22.741Z,9.70
2019-03-23T08:42:53.563Z,9.80
2019-03-23T08:45:24.621Z,9.90
2019-03-23T08:47:55.670Z,10.00
2019-03-23T08:50:26.978Z,10.10
2019-03-23T08:52:58.011Z,10.30
2019-03-23T08:55:29.265Z,10.40
2019-03-23T08:58:00.292Z,10.60
2019-03-23T09:00:31.346Z,10.70
2019-03-23T09:03:03.750Z,10.90
2019-03-23T09:05:35.261Z,11.10
2019-03-23T09:08:06.321Z,11.20
2019-03-23T09:10:43.023Z,11.50
2019-03-23T09:13:14.471Z,11.70
2019-03-23T09:15:45.738Z,11.90
2019-03-23T09:18:17.228Z,12.00
2019-03-23T09:20:48.349Z,12.00
2019-03-23T09:23:19.492Z,12.10
2019-03-23T09:25:50.923Z,12.20
2019-03-23T09:28:21.936Z,12.30
2019-03-23T09:30:54.224Z,12.50
2019-03-23T09:33:25.703Z,12.60
2019-03-23T09:35:57.260Z,12.80
2019-03-23T09:38:28.611Z,12.90
2019-03-23T09:41:00.194Z,13.00
2019-03-23T09:43:31.314Z,13.20
2019-03-23T09:46:02.585Z,13.40
2019-03-23T09:48:33.716Z,13.60
2019-03-23T09:51:04.772Z,13.70
2019-03-23T09:53:35.806Z,13.90
2019-03-23T09:56:06.986Z,14.00
2019-03-23T09:58:38.455Z,14.20
2019-03-23T10:01:09.496Z,14.40
2019-03-23T10:03:42.790Z,14.60
2019-03-23T10:06:13.229Z,14.80
2019-03-23T10:08:46.333Z,15.00
2019-03-23T10:11:17.205Z,15.30
2019-03-23T10:13:48.585Z,15.50
2019-03-23T10:16:19.609Z,15.80
2019-03-23T10:18:51.809Z,16.00
2019-03-23T10:21:22.860Z,16.20
2019-03-23T10:23:54.663Z,16.50
2019-03-23T10:26:26.280Z,16.80
2019-03-23T10:28:57.366Z,17.10
2019-03-23T10:31:28.810Z,17.50
2019-03-23T10:34:00.225Z,18.10
2019-03-23T10:36:32.550Z,18.70
2019-03-23T10:39:05.886Z,19.10
2019-03-23T10:41:36.992Z,19.60
2019-03-23T10:44:08.029Z,20.00
2019-03-23T10:46:39.163Z,20.50
2019-03-23T10:49:10.242Z,21.00
2019-03-23T10:51:41.713Z,21.40
2019-03-23T10:54:12.884Z,21.70
2019-03-23T10:56:43.993Z,22.00
2019-03-23T10:59:15.489Z,22.30
2019-03-23T11:01:46.731Z,22.40
2019-03-23T11:04:17.841Z,22.60
2019-03-23T11:06:49.103Z,22.90
2019-03-23T11:09:20.181Z,23.20
2019-03-23T11:11:51.296Z,23.50
2019-03-23T11:14:22.306Z,24.00
2019-03-23T11:16:53.344Z,24.20
2019-03-23T11:19:24.464Z,24.30
2019-03-23T11:21:56.094Z,24.40
2019-03-23T11:24:27.528Z,24.50
2019-03-23T11:26:58.902Z,24.80
2019-03-23T11:29:30.623Z,25.10
2019-03-23T11:32:02.133Z,25.40
2019-03-23T11:34:33.521Z,25.50
2019-03-23T11:37:05.099Z,25.50
2019-03-23T11:39:36.161Z,25.70
2019-03-23T11:42:07.265Z,25.80
2019-03-23T11:44:38.397Z,26.00
2019-03-23T11:47:09.553Z,26.30
2019-03-23T11:49:40.576Z,26.40
2019-03-23T11:52:11.604Z,26.60
2019-03-23T11:54:42.652Z,26.80
2019-03-23T11:57:13.791Z,26.90
2019-03-23T11:59:45.183Z,26.90
2019-03-23T12:02:16.300Z,27.10
2019-03-23T12:04:47.506Z,27.30
2019-03-23T12:07:21.547Z,27.50
2019-03-23T12:09:52.585Z,27.70
2019-03-23T12:12:23.888Z,27.90
2019-03-23T12:14:55.241Z,28.10
2019-03-23T12:17:26.273Z,28.30
2019-03-23T12:19:57.740Z,28.30
2019-03-23T12:22:29.799Z,28.50
2019-03-23T12:25:00.885Z,28.70
2019-03-23T12:27:32.220Z,28.80
2019-03-23T12:30:07.579Z,28.80
2019-03-23T12:32:42.788Z,29.00
2019-03-23T12:35:13.873Z,29.20
2019-03-23T12:37:45.281Z,29.50
2019-03-23T12:40:16.465Z,29.40
2019-03-23T12:42:47.808Z,29.40
2019-03-23T12:45:18.852Z,29.60
2019-03-23T12:47:49.946Z,29.70
2019-03-23T12:50:21.069Z,29.60
2019-03-23T12:52:52.144Z,29.30
2019-03-23T12:55:23.231Z,29.50
2019-03-23T12:57:54.365Z,29.70
2019-03-23T13:00:26.370Z,29.80
2019-03-23T13:02:58.011Z,29.80
2019-03-23T13:05:29.831Z,29.60
2019-03-23T13:08:01.742Z,29.70
2019-03-23T13:10:33.156Z,29.90
2019-03-23T13:13:04.525Z,30.00
2019-03-23T13:15:35.606Z,30.10
2019-03-23T13:18:06.885Z,30.20
2019-03-23T13:20:38.279Z,30.20
2019-03-23T13:23:09.316Z,30.20
2019-03-23T13:25:40.501Z,30.40
2019-03-23T13:28:11.540Z,30.60
2019-03-23T13:30:42.566Z,30.80
2019-03-23T13:33:14.198Z,30.90
2019-03-23T13:35:45.670Z,30.80
2019-03-23T13:38:18.488Z,31.10
2019-03-23T13:40:49.775Z,31.40
2019-03-23T13:43:21.107Z,31.70
2019-03-23T13:45:52.230Z,31.80
2019-03-23T13:48:23.600Z,31.90
2019-03-23T13:50:54.610Z,31.80
2019-03-23T13:53:25.649Z,31.70
2019-03-23T13:55:56.678Z,31.60
2019-03-23T13:58:27.733Z,31.70
2019-03-23T14:00:58.828Z,31.70
2019-03-23T14:03:30.013Z,31.60
2019-03-23T14:06:01.613Z,31.40
2019-03-23T14:08:32.721Z,31.20
2019-03-23T14:11:03.961Z,30.90
2019-03-23T14:13:35.254Z,30.80
2019-03-23T14:16:06.265Z,31.00
2019-03-23T14:18:37.447Z,31.10
2019-03-23T14:21:08.552Z,31.20
2019-03-23T14:23:39.569Z,31.20
2019-03-23T14:26:10.593Z,31.20
2019-03-23T14:28:42.024Z,30.60
2019-03-23T14:31:13.331Z,29.60
2019-03-23T14:33:44.334Z,28.50
2019-03-23T14:36:15.769Z,27.50
2019-03-23T14:38:47.143Z,26.70
2019-03-23T14:41:18.226Z,26.30
2019-03-23T14:43:49.437Z,26.50
2019-03-23T14:46:20.735Z,26.90
2019-03-23T14:48:51.830Z,27.40
2019-03-23T14:51:22.933Z,28.10
2019-03-23T14:53:53.961Z,28.90
2019-03-23T14:56:25.064Z,29.60
2019-03-23T14:58:56.283Z,30.10
2019-03-23T15:01:28.786Z,30.10
2019-03-23T15:04:00.107Z,30.10
2019-03-23T15:06:33.408Z,30.40
2019-03-23T15:09:05.441Z,30.50
2019-03-23T15:11:36.626Z,30.80
2019-03-23T15:14:07.804Z,31.20
2019-03-23T15:16:38.809Z,31.60
2019-03-23T15:19:09.830Z,31.70
2019-03-23T15:21:40.919Z,31.80
2019-03-23T15:24:12.090Z,31.90
2019-03-23T15:26:43.224Z,32.10
2019-03-23T15:29:14.549Z,32.10
2019-03-23T15:31:45.601Z,31.60
2019-03-23T15:34:16.597Z,30.80
2019-03-23T15:36:47.908Z,30.20
2019-03-23T15:39:18.916Z,29.80
2019-03-23T15:41:49.933Z,29.30
2019-03-23T15:44:20.996Z,28.80
2019-03-23T15:46:52.012Z,28.10
2019-03-23T15:49:23.107Z,27.60
2019-03-23T15:51:54.116Z,27.00
2019-03-23T15:54:25.402Z,26.60
2019-03-23T15:56:56.784Z,26.10
2019-03-23T15:59:27.811Z,25.80
2019-03-23T16:01:58.914Z,25.40
2019-03-23T16:04:29.988Z,24.90
2019-03-23T16:07:01.083Z,24.40
2019-03-23T16:09:32.777Z,23.90
2019-03-23T16:12:04.108Z,23.60
2019-03-23T16:14:35.485Z,23.60
2019-03-23T16:17:06.544Z,23.50
2019-03-23T16:19:37.652Z,23.50
2019-03-23T16:22:08.712Z,23.40
2019-03-23T16:24:39.846Z,23.40
2019-03-23T16:27:10.857Z,23.30
2019-03-23T16:29:41.857Z,23.30
2019-03-23T16:32:12.917Z,23.50
2019-03-23T16:34:44.009Z,23.70
2019-03-23T16:37:15.099Z,23.90
2019-03-23T16:39:46.124Z,24.00
2019-03-23T16:42:17.103Z,23.80
2019-03-23T16:44:48.233Z,23.30
2019-03-23T16:47:19.259Z,22.70
2019-03-23T16:49:51.641Z,22.10
2019-03-23T16:52:22.737Z,21.50
2019-03-23T16:54:54.057Z,21.00
2019-03-23T16:57:25.219Z,20.40
2019-03-23T16:59:58.477Z,20.10
2019-03-23T17:02:30.328Z,19.70
2019-03-23T17:05:02.644Z,19.40
2019-03-23T17:07:33.704Z,19.10
2019-03-23T17:10:05.989Z,18.80
2019-03-23T17:12:36.995Z,18.60
2019-03-23T17:15:09.202Z,18.40
2019-03-23T17:17:40.209Z,18.20
2019-03-23T17:20:11.542Z,18.00
2019-03-23T17:22:42.592Z,17.80
2019-03-23T17:25:13.609Z,17.60
2019-03-23T17:27:44.645Z,17.40
2019-03-23T17:30:15.735Z,17.20
2019-03-23T17:32:46.728Z,17.10
2019-03-23T17:35:17.753Z,16.90
2019-03-23T17:37:48.822Z,16.70
2019-03-23T17:40:19.891Z,16.60
2019-03-23T17:42:50.947Z,16.40
2019-03-23T17:45:22.041Z,16.20
2019-03-23T17:47:53.255Z,16.10
2019-03-23T17:50:24.360Z,15.90
2019-03-23T17:52:55.465Z,15.80
2019-03-23T17:55:26.929Z,15.70
2019-03-23T17:57:58.170Z,15.50
2019-03-23T18:00:29.957Z,15.30
2019-03-23T18:03:01.324Z,15.20
2019-03-23T18:05:32.437Z,15.10
2019-03-23T18:08:03.431Z,14.90
2019-03-23T18:10:35.121Z,14.80
2019-03-23T18:13:15.966Z,14.70
2019-03-23T18:15:39.129Z,14.60
2019-03-23T18:18:10.169Z,14.50
2019-03-23T18:20:41.672Z,14.30
2019-03-23T18:23:12.681Z,14.20
2019-03-23T18:25:51.624Z,14.10
2019-03-23T18:28:31.456Z,14.00
2019-03-23T18:31:02.860Z,13.90
2019-03-23T18:33:32.388Z,13.80
2019-03-23T18:36:01.988Z,13.70
2019-03-23T18:38:31.602Z,13.60
2019-03-23T18:41:01.208Z,13.60
2019-03-23T18:43:30.757Z,13.50
2019-03-23T18:46:00.350Z,13.40
2019-03-23T18:48:29.895Z,13.20
2019-03-23T18:50:59.436Z,13.10
2019-03-23T18:53:28.970Z,13.10
